Time;durP1;ratioP1;P1;durP2;ratioP2;P2;SDS_P1;SDS_P2;PMS_P1;PMS_P2;Temp;Humidity;BMP_temperature;BMP_pressure;BME280_temperature;BME280_humidity;BME280_pressure;Samples;Min_cycle;Max_cycle;Signal;HPM_P1;HPM_P2
2023/09/15 00:00:42;;;;;;;8.5;5.9;;;;;;;16.93;84.88;;;;;
2023/09/15 00:11:42;;;;;;;8.5;5.9;;;;;;;16.93;84.54;;;;;
2023/09/15 00:21:42;;;;;;;8.5;5.9;;;;;;;16.91;85;;;;;
2023/09/15 00:31:42;;;;;;;13.2;6.9;;;;;;;16.92;84.87;;;;;
2023/09/15 00:42:42;;;;;;;13.2;6.9;;;;;;;16.94;85.34;;;;;
2023/09/15 00:53:42;;;;;;;14.1;7.6;;;;;;;17.03;85.21;;;;;
2023/09/15 01:03:42;;;;;;;14.1;7.6;;;;;;;16.79;86.02;;;;;
2023/09/15 01:13:42;;;;;;;14.1;7.6;;;;;;;16.8;86.65;;;;;
2023/09/15 01:24:42;;;;;;;10.1;7.3;;;;;;;16.94;86.27;;;;;
2023/09/15 01:34:42;;;;;;;10.1;7.3;;;;;;;16.9;86.42;;;;;
2023/09/15 01:45:42;;;;;;;10.1;7.3;;;;;;;16.85;86.52;;;;;
2023/09/15 01:56:42;;;;;;;14.2;7.8;;;;;;;16.76;86.52;;;;;
2023/09/15 02:07:42;;;;;;;14.2;7.8;;;;;;;16.74;87.41;;;;;
2023/09/15 02:18:43;;;;;;;14.2;7.8;;;;;;;16.71;87.1;;;;;
2023/09/15 02:28:42;;;;;;;10.9;7.6;;;;;;;16.72;87.01;;;;;
2023/09/15 02:38:42;;;;;;;10.9;7.6;;;;;;;16.66;86.73;;;;;
2023/09/15 02:48:42;;;;;;;10.9;7.6;;;;;;;16.55;86.83;;;;;
2023/09/15 02:58:44;;;;;;;11.9;8;;;;;;;16.51;86.6;;;;;
2023/09/15 03:09:43;;;;;;;11.9;8;;;;;;;16.13;88.14;;;;;
2023/09/15 03:19:43;;;;;;;11.9;8;;;;;;;16.13;87.47;;;;;
2023/09/15 03:30:43;;;;;;;14.7;8.6;;;;;;;16.01;87.51;;;;;
2023/09/15 03:40:43;;;;;;;14.7;8.6;;;;;;;15.86;87.51;;;;;
2023/09/15 03:50:43;;;;;;;14.7;8.6;;;;;;;15.73;88.04;;;;;
2023/09/15 04:00:43;;;;;;;12.3;6.7;;;;;;;15.67;88.36;;;;;
2023/09/15 04:11:43;;;;;;;12.3;6.7;;;;;;;15.56;88.72;;;;;
2023/09/15 04:21:43;;;;;;;12.3;6.7;;;;;;;15.65;88.47;;;;;
2023/09/15 04:32:43;;;;;;;8.2;6.3;;;;;;;15.54;88.63;;;;;
2023/09/15 04:42:43;;;;;;;8.2;6.3;;;;;;;15.64;88.73;;;;;
2023/09/15 04:53:43;;;;;;;10.1;7.2;;;;;;;15.85;89;;;;;
2023/09/15 05:04:43;;;;;;;10.1;7.2;;;;;;;16.15;88.47;;;;;
2023/09/15 05:15:43;;;;;;;10.1;7.2;;;;;;;16.25;87.72;;;;;
2023/09/15 05:25:43;;;;;;;11.2;6.7;;;;;;;16.19;87.14;;;;;
2023/09/15 05:36:43;;;;;;;11.2;6.7;;;;;;;15.77;88.31;;;;;
2023/09/15 05:46:43;;;;;;;11.2;6.7;;;;;;;15.69;88.92;;;;;
2023/09/15 05:57:43;;;;;;;10.2;7.6;;;;;;;15.94;88.76;;;;;
2023/09/15 06:08:43;;;;;;;10.2;7.6;;;;;;;16.33;88.34;;;;;
2023/09/15 06:18:43;;;;;;;10.2;7.6;;;;;;;16.93;85.18;;;;;
2023/09/15 06:28:43;;;;;;;10.5;6.8;;;;;;;17.24;84.56;;;;;
2023/09/15 06:39:43;;;;;;;10.5;6.8;;;;;;;17.44;82.68;;;;;
2023/09/15 06:49:43;;;;;;;10.5;6.8;;;;;;;17.69;80.47;;;;;
2023/09/15 06:59:43;;;;;;;8.3;4;;;;;;;17.54;80.43;;;;;
2023/09/15 07:10:44;;;;;;;8.3;4;;;;;;;17.89;79.22;;;;;
2023/09/15 07:21:44;;;;;;;8.3;4;;;;;;;18.4;78.89;;;;;
2023/09/15 07:31:43;;;;;;;7.7;4.4;;;;;;;18.77;78.07;;;;;
2023/09/15 07:42:43;;;;;;;7.7;4.4;;;;;;;18.63;75.89;;;;;
2023/09/15 07:52:43;;;;;;;7.4;4.4;;;;;;;18.54;76.34;;;;;
2023/09/15 08:02:43;;;;;;;7.4;4.4;;;;;;;18.71;75.39;;;;;
2023/09/15 08:13:43;;;;;;;7.4;4.4;;;;;;;19.05;70.96;;;;;
2023/09/15 08:23:43;;;;;;;5.7;3.1;;;;;;;19.27;71.38;;;;;
2023/09/15 08:34:43;;;;;;;5.7;3.1;;;;;;;19.52;70.91;;;;;
2023/09/15 08:44:43;;;;;;;5.7;3.1;;;;;;;19.15;69.69;;;;;
2023/09/15 08:54:43;;;;;;;5.4;3.1;;;;;;;19.42;68.3;;;;;
2023/09/15 09:05:43;;;;;;;5.4;3.1;;;;;;;19.35;67.36;;;;;
2023/09/15 09:16:43;;;;;;;5.4;3.1;;;;;;;20.17;65.03;;;;;
2023/09/15 09:27:43;;;;;;;6.5;2.5;;;;;;;20.25;62.09;;;;;
2023/09/15 09:37:43;;;;;;;6.5;2.5;;;;;;;20.34;62.46;;;;;
2023/09/15 09:48:43;;;;;;;6.5;2.5;;;;;;;20.77;61.48;;;;;
2023/09/15 09:58:44;;;;;;;4.5;1.6;;;;;;;21;60.14;;;;;
2023/09/15 10:09:43;;;;;;;4.5;1.6;;;;;;;20.4;62.11;;;;;
2023/09/15 10:20:43;;;;;;;4.5;1.6;;;;;;;21.3;62.17;;;;;
2023/09/15 10:30:43;;;;;;;5.1;2.4;;;;;;;20.78;60.98;;;;;
2023/09/15 10:41:43;;;;;;;5.1;2.4;;;;;;;20.75;59.83;;;;;
2023/09/15 10:51:43;;;;;;;5.1;2.4;;;;;;;21.51;56.22;;;;;
2023/09/15 11:01:43;;;;;;;4.6;2.1;;;;;;;21.73;57.32;;;;;
2023/09/15 11:11:44;;;;;;;4.6;2.1;;;;;;;21.6;58.42;;;;;
2023/09/15 11:21:43;;;;;;;4.6;2.1;;;;;;;21.69;57.88;;;;;
2023/09/15 11:32:43;;;;;;;5.4;2.1;;;;;;;21.72;56.4;;;;;
2023/09/15 11:43:43;;;;;;;5.4;2.1;;;;;;;21.97;54.92;;;;;
2023/09/15 11:53:43;;;;;;;5.5;2.6;;;;;;;21.41;57.72;;;;;
2023/09/15 12:04:43;;;;;;;5.5;2.6;;;;;;;21.01;56.95;;;;;
2023/09/15 12:15:43;;;;;;;5.5;2.6;;;;;;;20.99;57.95;;;;;
2023/09/15 12:25:43;;;;;;;5.5;2.6;;;;;;;21.05;56.7;;;;;
2023/09/15 12:36:43;;;;;;;4.3;2;;;;;;;21.49;56.05;;;;;
2023/09/15 12:46:43;;;;;;;4.3;2;;;;;;;21.11;55.17;;;;;
2023/09/15 12:56:43;;;;;;;5;2.3;;;;;;;20.72;58.58;;;;;
2023/09/15 13:06:43;;;;;;;5;2.3;;;;;;;21.05;55.32;;;;;
2023/09/15 13:17:43;;;;;;;5;2.3;;;;;;;21.3;56.12;;;;;
2023/09/15 13:28:43;;;;;;;6.7;2.3;;;;;;;20.75;57.15;;;;;
2023/09/15 13:38:43;;;;;;;6.7;2.3;;;;;;;21.14;53.33;;;;;
2023/09/15 13:49:43;;;;;;;6.7;2.3;;;;;;;21.49;53.81;;;;;
2023/09/15 14:00:43;;;;;;;5.8;2.1;;;;;;;21.33;53.22;;;;;
2023/09/15 14:10:43;;;;;;;5.8;2.1;;;;;;;21.55;51.93;;;;;
2023/09/15 14:21:44;;;;;;;5.8;2.1;;;;;;;21.73;51.63;;;;;
2023/09/15 14:31:43;;;;;;;4.4;2.1;;;;;;;21.66;52.08;;;;;
2023/09/15 14:42:43;;;;;;;4.4;2.1;;;;;;;21.59;53.98;;;;;
2023/09/15 14:52:44;;;;;;;4.4;2.1;;;;;;;21.52;53.1;;;;;
2023/09/15 15:03:43;;;;;;;4.2;2.1;;;;;;;21.51;51.68;;;;;
2023/09/15 15:14:43;;;;;;;4.2;2.1;;;;;;;22.17;50.8;;;;;
2023/09/15 15:24:43;;;;;;;4.7;2.1;;;;;;;25.06;43.95;;;;;
2023/09/15 15:35:43;;;;;;;4.7;2.1;;;;;;;26.12;41.94;;;;;
2023/09/15 15:46:45;;;;;;;4.7;2.1;;;;;;;26.03;42.19;;;;;
2023/09/15 15:56:44;;;;;;;4.6;1.9;;;;;;;25.56;41.26;;;;;
2023/09/15 16:07:43;;;;;;;4.6;1.9;;;;;;;25.75;41.43;;;;;
2023/09/15 16:18:43;;;;;;;4.6;1.9;;;;;;;25.37;42.55;;;;;
2023/09/15 16:29:43;;;;;;;5.2;2.1;;;;;;;23.38;47;;;;;
2023/09/15 16:39:43;;;;;;;5.2;2.1;;;;;;;21.22;52.62;;;;;
2023/09/15 16:50:43;;;;;;;5.2;2.1;;;;;;;19.78;56.4;;;;;
2023/09/15 17:01:43;;;;;;;6.4;2.7;;;;;;;18.96;58.76;;;;;
2023/09/15 17:11:43;;;;;;;6.4;2.7;;;;;;;18.23;61.13;;;;;
2023/09/15 17:21:47;;;;;;;6.4;2.7;;;;;;;17.47;64;;;;;
2023/09/15 17:32:44;;;;;;;5;2.9;;;;;;;17.01;65.81;;;;;
2023/09/15 17:43:43;;;;;;;5;2.9;;;;;;;16.4;69.34;;;;;
2023/09/15 17:54:45;;;;;;;6.1;3.2;;;;;;;16;70.7;;;;;
2023/09/15 18:05:44;;;;;;;6.1;3.2;;;;;;;15.64;72.61;;;;;
2023/09/15 18:15:43;;;;;;;6.1;3.2;;;;;;;15.54;72.13;;;;;
2023/09/15 18:26:43;;;;;;;7.4;3.8;;;;;;;15.31;73.14;;;;;
2023/09/15 18:36:43;;;;;;;7.4;3.8;;;;;;;15.02;74.29;;;;;
2023/09/15 18:46:43;;;;;;;7.4;3.8;;;;;;;14.94;74.12;;;;;
2023/09/15 18:57:43;;;;;;;7;5;;;;;;;14.83;74.56;;;;;
2023/09/15 19:07:43;;;;;;;7;5;;;;;;;14.64;75;;;;;
2023/09/15 19:18:43;;;;;;;7;5;;;;;;;14.51;75.57;;;;;
2023/09/15 19:28:46;;;;;;;6.6;4.5;;;;;;;14.35;75.41;;;;;
2023/09/15 19:38:43;;;;;;;6.6;4.5;;;;;;;14.21;76.16;;;;;
2023/09/15 19:49:43;;;;;;;6.6;4.5;;;;;;;14.06;77.08;;;;;
2023/09/15 19:59:43;;;;;;;8.8;5;;;;;;;13.85;78.3;;;;;
2023/09/15 20:09:43;;;;;;;8.8;5;;;;;;;13.74;78.58;;;;;
2023/09/15 20:19:43;;;;;;;8.8;5;;;;;;;13.66;78.89;;;;;
2023/09/15 20:29:44;;;;;;;9.2;4;;;;;;;13.44;78.43;;;;;
2023/09/15 20:39:44;;;;;;;9.2;4;;;;;;;13.14;78.24;;;;;
2023/09/15 20:50:43;;;;;;;9.2;4;;;;;;;12.84;79.95;;;;;
2023/09/15 21:00:44;;;;;;;8.8;5.5;;;;;;;12.56;82.36;;;;;
2023/09/15 21:10:44;;;;;;;8.8;5.5;;;;;;;12.37;81.59;;;;;
2023/09/15 21:21:44;;;;;;;8.8;5.5;;;;;;;12.2;82.53;;;;;
2023/09/15 21:31:44;;;;;;;6;2.9;;;;;;;12.07;84.09;;;;;
2023/09/15 21:42:44;;;;;;;6;2.9;;;;;;;11.87;83.54;;;;;
2023/09/15 21:53:44;;;;;;;10.5;3.3;;;;;;;11.8;84.54;;;;;
2023/09/15 22:04:43;;;;;;;10.5;3.3;;;;;;;11.69;86.56;;;;;
2023/09/15 22:14:44;;;;;;;10.5;3.3;;;;;;;11.58;87.04;;;;;
2023/09/15 22:24:44;;;;;;;8.4;3;;;;;;;11.45;87.06;;;;;
2023/09/15 22:34:44;;;;;;;8.4;3;;;;;;;11.38;87;;;;;
2023/09/15 22:45:45;;;;;;;8.4;3;;;;;;;11.21;87.29;;;;;
2023/09/15 22:55:44;;;;;;;7;3.7;;;;;;;11.15;87.55;;;;;
2023/09/15 23:05:44;;;;;;;7;3.7;;;;;;;11.03;88.63;;;;;
2023/09/15 23:15:44;;;;;;;7;3.7;;;;;;;10.97;88.86;;;;;
2023/09/15 23:26:43;;;;;;;7.6;3.6;;;;;;;10.92;88.98;;;;;
2023/09/15 23:36:46;;;;;;;7.6;3.6;;;;;;;10.87;89.6;;;;;
2023/09/15 23:47:43;;;;;;;7.6;3.6;;;;;;;10.88;89.65;;;;;
2023/09/15 23:57:44;;;;;;;6.9;4;;;;;;;10.77;89.1;;;;;
